x

Smith Island, Wa (sisw1) Weather Station

6:00am - Wed 22nd Nov 2017 All times are PST. -8 hours from GMT.

  • Wind
    5mph, 5mph gusts
  • Air Temp 50°f
  • Sea Pressure 1012.7mb
  • Smith Island, Wa
  • Smith Island, Wa

More Historic Weather Station data

Upgrade to MSW Pro to gain access to the past 30 days of data for over 8000 Wavebouys and Weather Stations around the globe.

Join

Comparision Forecast

View Surf forecast
   
Wed 11/22 6:00am 5 5 mph 1012.7mb 50f
5:00am 5 6 mph 1012.5mb 49f
4:00am 5 5 mph 1012.1mb 49f
3:00am 11 13 mph 1012mb 49f
2:00am 16 17 mph 1012.3mb 54f
1:00am 15 16 mph 1012.1mb 53f
12:00am  -  0 mph 1012.4mb 50f
Tue 11/21 9:00pm 6 7 mph 1011.1mb 49f
8:00pm 22 23 mph 1009.4mb 54f
7:00pm 14 17 mph 1009.3mb 53f
6:00pm 25 28 mph 1008.3mb 52f
5:00pm 29 32 mph 1007.9mb 52f
4:00pm 29 33 mph 1007mb 52f
3:00pm 34 39 mph 1006.8mb 49f
2:00pm 32 34 mph 1007.2mb 50f
1:00pm 3 3 mph 1009.1mb 47f
12:00pm 7 8 mph 1011.2mb 45f
11:00am 15 17 mph 1013mb 44f
10:00am 14 15 mph 1013.9mb 44f
9:00am 13 14 mph 1014.2mb 43f
8:00am 15 17 mph 1014.3mb 42f
7:00am 15 16 mph 1015mb 42f
6:00am 8 9 mph 1015.9mb 42f
5:00am 10 11 mph 1015.9mb 43f
4:00am 16 17 mph 1015.9mb 42f
3:00am 13 15 mph 1017mb 42f
2:00am 14 15 mph 1017.2mb 42f
1:00am 14 15 mph 1017.7mb 43f
12:00am 13 15 mph 1018.1mb 44f
Mon 11/20 11:00pm 13 13 mph 1018.4mb 44f
10:00pm 9 10 mph 1018.6mb 46f
9:00pm 13 13 mph 1017.6mb 46f
8:00pm 9 11 mph 1016.8mb 47f
7:00pm 8 8 mph 1015.8mb 47f
6:00pm 6 8 mph 1014.4mb 47f
5:00pm 11 15 mph 1013.5mb 48f
4:00pm 14 20 mph 1012.5mb 49f
3:00pm 21 26 mph 1011.2mb 49f
2:00pm 30 34 mph 1009.8mb 48f
1:00pm 23 26 mph 1008.5mb 48f
12:00pm 16 17 mph 1007.2mb 47f
11:00am 15 18 mph 1005.8mb 47f
10:00am 11 15 mph 1004.1mb 46f
9:00am 11 14 mph 1002mb 47f
8:00am 13 14 mph 1000.9mb 47f
7:00am 8 9 mph 1000.4mb 46f
6:00am 5 5 mph 999.9mb 46f
5:00am 9 10 mph 999.9mb 46f
4:00am 16 17 mph 999.9mb 46f
3:00am 21 23 mph 1000.5mb 47f
2:00am 30 34 mph 999.4mb 47f
1:00am 36 38 mph 999.4mb 46f
12:00am 33 36 mph 999.8mb 46f
Sun 11/19 11:00pm 36 40 mph 999.7mb 46f
10:00pm 40 47 mph 999.5mb 45f
9:00pm 40 46 mph 999.8mb 45f
8:00pm 41 51 mph 999.9mb 44f
7:00pm 48 56 mph 1000.2mb 44f
6:00pm 41 47 mph 1000.6mb 45f
5:00pm 43 48 mph 1000.9mb 46f
4:00pm 44 48 mph 1000.6mb 46f
3:00pm 40 48 mph 1001.3mb 46f
2:00pm 41 45 mph 1002.6mb 47f
1:00pm 38 51 mph 1003.7mb 48f
12:00pm 38 46 mph 1004.2mb 48f
11:00am 41 49 mph 1005.4mb 47f
10:00am 43 47 mph 1007mb 47f
9:00am 48 54 mph 1007.9mb 46f
8:00am 46 54 mph 1009.1mb 46f
7:00am 37 43 mph 1010.6mb 47f
6:00am 37 41 mph 1011.9mb 47f
5:00am 37 41 mph 1012.5mb 47f
4:00am 25 30 mph 1013.5mb 48f
3:00am 26 30 mph 1014.6mb 47f
2:00am 29 32 mph 1014.9mb 48f
1:00am 28 30 mph 1015.4mb 48f
12:00am 28 33 mph 1016.2mb 48f
Sat 11/18 11:00pm 21 24 mph 1016.8mb 48f
10:00pm 23 28 mph 1017.3mb 49f
9:00pm 29 31 mph 1018mb 49f
8:00pm 20 21 mph 1018.5mb 49f
7:00pm 20 22 mph 1018.7mb 49f
6:00pm 15 17 mph 1019.2mb 49f
5:00pm 16 20 mph 1019.4mb 49f
4:00pm 14 15 mph 1020.1mb 49f